KMXF/MXF METAR and TAF weather

Enter ICAO airport designator
Station Type Date Time Source
KMXF METAR 2021/08/01 17:56 UTC NOAA

KMXF 011756Z 28004KT 10SM FEW042 FEW170 34/24 A2996 RMK AO2A SLP146 T03430183 10343 20238 57013 $


Station Type Date Time Source
KMXF Decoded METAR 2021/08/01 17:56 UTC NOAA

Maxwell Air Force Base / Montgomery, AL, United States (KMXF) 32-23N 086-22W
Aug 01, 2021 - 01:56 PM EDT / 2021.08.01 1756 UTC
Wind: from the W (280 degrees) at 5 MPH (4 KT):0
Visibility: 10 mile(s):0
Sky conditions: mostly clear
Temperature: 93.7 F (34.3 C)
Heat index: 95.7 F (35.4 C):1
Dew Point: 64.9 F (18.3 C)
Relative Humidity: 38%
Pressure (altimeter): 29.96 in. Hg (1014 hPa)
Pressure tendency: 0.04 inches (1.3 hPa) lower than three hours ago
ob: KMXF 011756Z 28004KT 10SM FEW042 FEW170 34/24 A2996 RMK AO2A SLP146 T03430183 10343 20238 57013
cycle: 18

Station Type Date Time Source
KMXF TAF 2021/08/01 14:46 UTC NOAA

TAF
AMD KMXF 011425Z 0114/0217 25006KT 9999 SKC QNH2992INS
TEMPO 0119/0202 28020G30KT 4800 TSRA SCT040CB BKN080
BECMG 0214/0215 VRB06KT 8000 BR BKN025 QNH2997INS
BECMG 0215/0216 VRB06KT 8000 -SHRA SCT025 QNH2997INS
TEMPO 0216/0217 VRB25G35KT 8000 TSRA SCT025CB BKN040 OVC055 TX36/0121Z TN23/0211Z

Example: see airport list